Time;durP1;ratioP1;P1;durP2;ratioP2;P2;SDS_P1;SDS_P2;PMS_P1;PMS_P2;Temp;Humidity;BMP_temperature;BMP_pressure;BME280_temperature;BME280_humidity;BME280_pressure;Samples;Min_cycle;Max_cycle;Signal;HPM_P1;HPM_P2
2021/07/06 00:00:29;;;;;;;0.20;0.20;;;;;;;20.62;68.16;100495.25;5023024;28;20534;-80
2021/07/06 00:02:56;;;;;;;0.25;0.25;;;;;;;20.65;68.27;100493.22;5022072;28;20361;-78
2021/07/06 00:05:23;;;;;;;0.30;0.30;;;;;;;20.43;68.62;100493.81;5018771;28;20552;-79
2021/07/06 00:07:50;;;;;;;0.25;0.25;;;;;;;20.37;69.25;100483.47;5023467;28;20491;-79
2021/07/06 00:10:18;;;;;;;0.00;0.00;;;;;;;20.40;69.15;100482.38;5023352;28;20041;-77
2021/07/06 00:12:45;;;;;;;0.10;0.10;;;;;;;20.52;68.82;100484.25;5019330;28;20025;-78
2021/07/06 00:15:14;;;;;;;0.10;0.10;;;;;;;20.47;69.17;100478.31;5023147;28;20022;-80
2021/07/06 00:17:42;;;;;;;0.20;0.20;;;;;;;20.41;69.28;100449.13;5021971;28;20032;-77
2021/07/06 00:20:11;;;;;;;0.15;0.15;;;;;;;20.42;69.21;100443.66;5022468;28;20468;-79
2021/07/06 00:22:38;;;;;;;0.15;0.15;;;;;;;20.49;69.07;100439.56;5023332;28;20033;-80
2021/07/06 00:25:06;;;;;;;0.00;0.00;;;;;;;20.43;69.81;100439.16;5020601;28;20574;-81
2021/07/06 00:27:32;;;;;;;0.10;0.10;;;;;;;20.45;69.40;100445.25;5051239;22;20052;-83
2021/07/06 00:29:59;;;;;;;0.05;0.05;;;;;;;20.48;69.45;100450.47;5055613;28;20033;-83
2021/07/06 00:32:25;;;;;;;0.90;0.90;;;;;;;20.43;69.64;100444.53;5055511;28;20032;-83
2021/07/06 00:34:51;;;;;;;12.05;1.17;;;;;;;20.46;69.47;100438.91;5054566;28;20033;-85
2021/07/06 00:37:18;;;;;;;0.00;0.00;;;;;;;20.52;69.54;100443.88;5055257;28;20025;-85
2021/07/06 00:39:44;;;;;;;0.47;0.47;;;;;;;20.54;69.36;100439.28;5054862;28;20554;-84
2021/07/06 00:42:11;;;;;;;0.10;0.10;;;;;;;20.53;69.11;100441.09;5055372;28;20029;-82
2021/07/06 00:44:38;;;;;;;0.10;0.10;;;;;;;20.57;68.93;100436.34;5055775;28;20028;-84
2021/07/06 00:47:06;;;;;;;0.15;0.15;;;;;;;20.58;69.13;100427.31;5054916;28;20033;-84
2021/07/06 00:49:34;;;;;;;0.50;0.50;;;;;;;20.61;69.14;100427.13;5053035;28;20043;-84
2021/07/06 00:52:07;;;;;;;0.00;0.00;;;;;;;20.61;69.20;100427.13;5054376;28;20470;-84
2021/07/06 00:54:42;;;;;;;0.88;0.88;;;;;;;20.62;69.35;100422.59;5054427;28;20028;-84
2021/07/06 00:57:09;;;;;;;0.10;0.10;;;;;;;20.59;69.16;100412.06;5054939;28;20530;-84
2021/07/06 00:59:36;;;;;;;0.15;0.15;;;;;;;20.59;69.31;100406.66;5053945;28;20033;-85
2021/07/06 01:02:03;;;;;;;0.25;0.25;;;;;;;20.59;69.37;100412.06;5054315;28;20399;-84
2021/07/06 01:04:30;;;;;;;3.10;1.73;;;;;;;20.49;69.65;100401.06;5056022;28;20472;-81
2021/07/06 01:06:56;;;;;;;0.05;0.05;;;;;;;20.52;69.56;100400.81;5053092;28;20045;-84
2021/07/06 01:09:23;;;;;;;0.10;0.10;;;;;;;20.61;69.15;100389.44;5053478;28;20060;-83
2021/07/06 01:11:50;;;;;;;0.10;0.10;;;;;;;20.49;69.77;100392.97;5052128;28;20029;-84
2021/07/06 01:14:18;;;;;;;0.08;0.08;;;;;;;20.48;70.17;100389.41;5053313;28;20124;-83
2021/07/06 01:16:46;;;;;;;0.30;0.30;;;;;;;20.51;69.95;100388.34;5053921;28;20468;-84
2021/07/06 01:19:14;;;;;;;0.05;0.05;;;;;;;20.62;69.59;100379.53;5053618;28;20033;-84
2021/07/06 01:21:41;;;;;;;0.00;0.00;;;;;;;20.52;69.95;100380.19;5052142;28;20697;-84
2021/07/06 01:24:08;;;;;;;0.10;0.10;;;;;;;20.41;70.51;100372.00;5053645;28;20033;-85
2021/07/06 01:26:35;;;;;;;0.00;0.00;;;;;;;20.42;70.31;100364.75;5056697;28;20452;-84
2021/07/06 01:29:01;;;;;;;0.22;0.22;;;;;;;20.51;69.94;100367.69;5058191;28;20041;-84
2021/07/06 01:31:28;;;;;;;0.10;0.10;;;;;;;20.26;70.63;100347.00;5057739;28;20051;-83
2021/07/06 01:33:56;;;;;;;0.10;0.10;;;;;;;20.30;70.78;100351.19;5058359;28;20034;-83
2021/07/06 01:36:23;;;;;;;0.22;0.22;;;;;;;20.32;70.60;100340.31;5058123;28;20425;-85
2021/07/06 01:38:50;;;;;;;0.05;0.05;;;;;;;20.32;70.46;100335.78;5057917;28;20107;-82
2021/07/06 01:41:17;;;;;;;0.10;0.10;;;;;;;20.46;70.04;100326.78;5058301;28;20025;-84
2021/07/06 01:43:46;;;;;;;0.00;0.00;;;;;;;20.40;70.07;100323.63;5057656;28;20049;-84
2021/07/06 01:46:12;;;;;;;0.00;0.00;;;;;;;20.39;70.13;100324.59;5058647;28;20082;-84
2021/07/06 01:48:38;;;;;;;0.05;0.05;;;;;;;20.47;69.84;100324.94;5058253;28;20021;-85
2021/07/06 01:51:05;;;;;;;0.43;0.43;;;;;;;20.43;70.01;100318.06;5056675;28;20036;-84
2021/07/06 01:53:31;;;;;;;0.40;0.15;;;;;;;20.60;69.42;100306.97;5056619;28;20083;-83
2021/07/06 01:55:58;;;;;;;0.38;0.38;;;;;;;20.53;69.58;100300.28;5058333;28;20047;-83
2021/07/06 01:58:26;;;;;;;0.10;0.10;;;;;;;20.48;69.78;100291.69;5071688;22;20045;-79
2021/07/06 02:00:56;;;;;;;1.15;1.10;;;;;;;20.44;70.04;100299.13;5056983;28;20407;-80
2021/07/06 02:03:22;;;;;;;0.10;0.10;;;;;;;20.55;69.61;100300.19;5057106;28;20021;-80
2021/07/06 02:05:55;;;;;;;0.00;0.00;;;;;;;20.53;69.84;100289.53;5056972;28;20075;-79
2021/07/06 02:08:24;;;;;;;0.10;0.10;;;;;;;20.45;70.17;100287.38;5056188;28;20029;-80
2021/07/06 02:10:54;;;;;;;0.15;0.15;;;;;;;20.57;69.63;100274.03;5056865;28;20478;-80
2021/07/06 02:13:23;;;;;;;0.10;0.10;;;;;;;20.47;69.89;100268.44;5056809;28;20025;-80
2021/07/06 02:15:52;;;;;;;0.10;0.10;;;;;;;20.58;69.54;100267.69;5055273;28;20041;-81
2021/07/06 02:18:20;;;;;;;1.08;1.08;;;;;;;20.53;69.68;100259.94;5056213;28;20488;-80
2021/07/06 02:20:49;;;;;;;0.82;0.32;;;;;;;20.45;69.74;100259.59;5056001;28;20044;-80
2021/07/06 02:23:16;;;;;;;0.10;0.10;;;;;;;20.52;69.26;100260.88;5056617;28;20025;-80
2021/07/06 02:25:43;;;;;;;0.25;0.20;;;;;;;20.45;69.63;100252.41;5055846;28;20033;-80
2021/07/06 02:28:10;;;;;;;0.08;0.08;;;;;;;20.41;69.58;100241.97;5056220;28;20079;-80
2021/07/06 02:30:36;;;;;;;0.03;0.03;;;;;;;20.45;69.31;100238.94;5056502;28;20043;-79
2021/07/06 02:33:03;;;;;;;0.00;0.00;;;;;;;20.44;69.33;100226.47;5056003;28;20376;-79
2021/07/06 02:35:30;;;;;;;0.22;0.22;;;;;;;20.44;69.34;100220.22;5056096;28;20029;-79
2021/07/06 02:37:58;;;;;;;0.10;0.10;;;;;;;20.41;69.08;100215.94;5055382;28;20033;-79
2021/07/06 02:40:25;;;;;;;0.10;0.10;;;;;;;20.23;69.81;100207.31;5056364;28;20033;-80
2021/07/06 02:42:52;;;;;;;0.10;0.10;;;;;;;20.20;70.16;100202.19;5055500;28;20076;-80
2021/07/06 02:45:20;;;;;;;0.10;0.10;;;;;;;20.34;69.59;100193.13;5055938;28;20040;-80
2021/07/06 02:47:48;;;;;;;0.00;0.00;;;;;;;20.31;69.74;100193.31;5055867;28;20033;-79
2021/07/06 02:50:16;;;;;;;0.05;0.05;;;;;;;20.34;69.62;100183.22;5056204;28;20464;-80
2021/07/06 02:52:43;;;;;;;0.10;0.10;;;;;;;20.28;69.71;100188.19;5056389;28;20410;-79
2021/07/06 02:55:10;;;;;;;0.08;0.08;;;;;;;20.20;70.04;100175.28;5055884;28;20048;-80
2021/07/06 02:57:37;;;;;;;1.00;0.85;;;;;;;20.30;69.79;100173.66;5055326;28;20041;-80
2021/07/06 03:02:56;;;;;;;0.10;0.10;;;;;;;20.22;70.14;100173.31;5091019;27;20402;-79
2021/07/06 03:05:25;;;;;;;0.10;0.10;;;;;;;20.30;69.90;100170.06;5071302;28;20040;-80
2021/07/06 03:07:54;;;;;;;0.00;0.00;;;;;;;20.28;69.91;100180.97;5057191;28;20384;-80
2021/07/06 03:10:23;;;;;;;0.00;0.00;;;;;;;20.36;69.52;100181.28;5051457;28;20075;-80
2021/07/06 03:12:51;;;;;;;0.00;0.00;;;;;;;20.23;70.22;100191.19;5050496;28;20396;-80
2021/07/06 03:15:19;;;;;;;0.08;0.08;;;;;;;20.23;69.97;100185.81;5050758;28;20033;-80
2021/07/06 03:17:46;;;;;;;0.10;0.10;;;;;;;20.25;69.89;100156.97;5050854;28;20487;-79
2021/07/06 03:20:15;;;;;;;0.10;0.10;;;;;;;20.27;69.74;100160.41;5051040;28;20068;-79
2021/07/06 03:22:42;;;;;;;0.10;0.10;;;;;;;20.25;69.87;100159.66;5050975;28;20092;-79
2021/07/06 03:25:10;;;;;;;0.20;0.20;;;;;;;20.23;70.13;100164.28;5050744;28;20079;-78
2021/07/06 03:27:37;;;;;;;0.10;0.10;;;;;;;20.22;69.93;100170.63;5051009;28;20049;-79
2021/07/06 03:30:06;;;;;;;0.05;0.05;;;;;;;20.20;69.94;100169.91;5050793;28;20025;-78
2021/07/06 03:32:32;;;;;;;0.03;0.03;;;;;;;20.03;70.42;100147.72;5050951;28;20056;-79
2021/07/06 03:34:59;;;;;;;0.75;0.50;;;;;;;20.01;70.47;100155.06;5050509;28;20033;-78
2021/07/06 03:37:25;;;;;;;0.20;0.20;;;;;;;20.02;70.27;100151.38;5050467;28;20028;-79
2021/07/06 03:39:51;;;;;;;0.10;0.10;;;;;;;20.03;70.09;100155.81;5050783;28;20036;-79
2021/07/06 03:42:18;;;;;;;0.10;0.10;;;;;;;20.04;70.05;100159.38;5050416;28;20065;-80
2021/07/06 03:44:44;;;;;;;0.05;0.05;;;;;;;20.06;70.47;100161.94;5049806;28;20568;-78
2021/07/06 03:47:10;;;;;;;0.10;0.10;;;;;;;20.01;70.77;100149.69;5049910;28;20112;-79
2021/07/06 03:49:37;;;;;;;0.32;0.32;;;;;;;20.07;70.33;100148.38;5050495;28;20040;-80
2021/07/06 03:52:04;;;;;;;0.10;0.10;;;;;;;20.14;70.49;100140.75;5050023;28;20075;-81
2021/07/06 03:54:30;;;;;;;0.10;0.10;;;;;;;20.19;70.32;100152.03;5050414;28;20037;-80
2021/07/06 03:56:57;;;;;;;0.00;0.00;;;;;;;20.22;70.21;100142.88;5050333;28;20063;-80
2021/07/06 03:59:23;;;;;;;0.10;0.10;;;;;;;20.24;70.14;100149.00;5049811;28;20021;-80
2021/07/06 04:01:50;;;;;;;0.10;0.10;;;;;;;20.30;69.91;100138.69;5050481;28;20080;-80
2021/07/06 04:04:17;;;;;;;0.10;0.10;;;;;;;20.33;69.88;100135.75;5049733;28;20115;-79
2021/07/06 04:06:43;;;;;;;0.00;0.00;;;;;;;20.43;69.78;100135.94;5049788;28;20039;-79
2021/07/06 04:09:09;;;;;;;0.25;0.25;;;;;;;20.39;69.72;100158.66;5050182;28;20040;-79
2021/07/06 04:11:35;;;;;;;0.10;0.10;;;;;;;20.30;69.90;100157.50;5049720;28;20100;-78
2021/07/06 04:14:02;;;;;;;0.08;0.08;;;;;;;20.34;69.85;100145.53;5037378;28;20384;-80
2021/07/06 04:16:28;;;;;;;0.00;0.00;;;;;;;20.32;69.66;100152.00;5036428;28;20097;-79
2021/07/06 04:18:54;;;;;;;0.08;0.08;;;;;;;20.43;69.49;100154.78;5036775;28;20074;-80
2021/07/06 04:21:20;;;;;;;0.10;0.10;;;;;;;20.53;69.33;100163.03;5036813;28;20037;-80
2021/07/06 04:23:46;;;;;;;0.00;0.00;;;;;;;20.57;68.88;100161.84;5036200;28;20040;-80
2021/07/06 04:26:13;;;;;;;0.10;0.10;;;;;;;20.48;69.57;100168.75;5036202;28;20451;-79
2021/07/06 04:28:39;;;;;;;0.50;0.32;;;;;;;20.45;69.30;100160.03;5036107;28;20384;-80
2021/07/06 04:31:05;;;;;;;0.10;0.10;;;;;;;20.40;69.40;100165.78;5036087;28;20036;-79
2021/07/06 04:33:31;;;;;;;0.13;0.13;;;;;;;20.28;70.41;100178.25;5036079;28;20029;-80
2021/07/06 04:35:58;;;;;;;0.30;0.30;;;;;;;20.44;69.70;100171.81;5036099;28;20026;-79
2021/07/06 04:38:24;;;;;;;0.20;0.20;;;;;;;20.52;69.37;100174.78;5035307;28;20037;-79
2021/07/06 04:40:51;;;;;;;0.10;0.10;;;;;;;20.48;69.43;100179.50;5035925;28;20033;-79
2021/07/06 04:43:18;;;;;;;0.10;0.10;;;;;;;20.65;69.17;100170.22;5036422;28;20033;-80
2021/07/06 04:45:44;;;;;;;0.22;0.22;;;;;;;20.54;69.44;100159.38;5035782;28;20029;-81
2021/07/06 04:48:11;;;;;;;0.10;0.10;;;;;;;20.76;68.69;100152.44;5035971;28;20192;-80
2021/07/06 04:50:38;;;;;;;0.00;0.00;;;;;;;20.80;68.54;100162.03;5036080;28;20108;-79
2021/07/06 04:53:06;;;;;;;0.10;0.10;;;;;;;20.76;68.62;100171.28;5035850;28;20457;-80
2021/07/06 04:55:35;;;;;;;0.00;0.00;;;;;;;20.80;68.61;100164.72;5034432;28;20038;-80
2021/07/06 04:58:01;;;;;;;0.08;0.08;;;;;;;20.75;68.93;100174.94;5036076;28;20022;-80
2021/07/06 05:00:28;;;;;;;0.10;0.10;;;;;;;20.79;68.73;100176.47;5035506;28;20044;-80
2021/07/06 05:02:54;;;;;;;0.05;0.05;;;;;;;20.66;69.14;100176.47;5035802;28;20483;-79
2021/07/06 05:05:20;;;;;;;0.10;0.10;;;;;;;20.79;68.65;100168.41;5035506;28;20030;-80
2021/07/06 05:07:47;;;;;;;0.10;0.10;;;;;;;20.90;68.30;100173.84;5035639;28;20108;-79
2021/07/06 05:10:14;;;;;;;0.05;0.05;;;;;;;20.89;68.27;100161.34;5035647;28;20445;-80
2021/07/06 05:12:40;;;;;;;0.10;0.10;;;;;;;20.90;68.13;100162.19;5034013;28;20053;-79
2021/07/06 05:15:08;;;;;;;0.10;0.10;;;;;;;20.89;68.25;100177.50;5035364;28;20113;-80
2021/07/06 05:17:34;;;;;;;0.10;0.10;;;;;;;20.89;68.32;100164.03;5035261;28;20060;-81
2021/07/06 05:20:01;;;;;;;0.10;0.10;;;;;;;20.91;67.91;100175.56;5035844;28;20044;-80
2021/07/06 05:22:27;;;;;;;0.10;0.10;;;;;;;20.97;68.02;100168.84;5035489;28;20544;-80
2021/07/06 05:24:55;;;;;;;0.10;0.10;;;;;;;21.12;67.61;100158.75;5034069;28;20037;-80
2021/07/06 05:27:22;;;;;;;0.00;0.00;;;;;;;21.03;67.73;100172.94;5034862;28;20361;-81
2021/07/06 05:29:48;;;;;;;0.10;0.10;;;;;;;20.98;67.72;100168.72;5033840;28;20461;-80
2021/07/06 05:32:20;;;;;;;0.00;0.00;;;;;;;21.18;67.42;100166.38;5034882;28;20025;-80
2021/07/06 05:34:46;;;;;;;0.10;0.10;;;;;;;21.17;67.26;100159.25;5034852;28;20158;-81
2021/07/06 05:37:12;;;;;;;0.00;0.00;;;;;;;21.10;67.50;100153.50;5034673;28;20032;-81
2021/07/06 05:39:39;;;;;;;0.10;0.10;;;;;;;21.09;67.76;100154.47;5035025;28;20414;-81
2021/07/06 05:42:07;;;;;;;0.10;0.10;;;;;;;21.15;67.24;100151.31;5034788;28;20033;-80
2021/07/06 05:44:34;;;;;;;0.00;0.00;;;;;;;21.07;67.41;100163.63;5034993;28;20021;-81
2021/07/06 05:47:00;;;;;;;0.10;0.10;;;;;;;21.17;67.33;100154.75;5034703;28;20362;-80
2021/07/06 05:49:26;;;;;;;0.10;0.10;;;;;;;21.08;67.45;100147.34;5034688;28;20469;-81
2021/07/06 05:51:52;;;;;;;0.20;0.20;;;;;;;21.19;66.89;100140.31;5034673;28;20488;-81
2021/07/06 05:54:18;;;;;;;0.10;0.10;;;;;;;21.25;66.96;100150.63;5034464;28;20025;-81
2021/07/06 05:56:44;;;;;;;0.10;0.10;;;;;;;21.30;66.68;100145.75;5034309;28;20040;-82
2021/07/06 05:59:10;;;;;;;0.10;0.10;;;;;;;21.30;66.46;100143.03;5034402;28;20022;-81
2021/07/06 06:01:37;;;;;;;5.72;1.27;;;;;;;21.37;66.29;100135.34;5034443;28;20117;-81
2021/07/06 06:04:03;;;;;;;0.08;0.08;;;;;;;21.44;66.25;100145.53;5035108;28;20025;-82
2021/07/06 06:06:29;;;;;;;0.00;0.00;;;;;;;21.20;66.19;100150.97;5034310;28;20559;-82
2021/07/06 06:08:56;;;;;;;0.10;0.10;;;;;;;21.30;66.01;100149.28;5034065;28;20095;-81
2021/07/06 06:11:22;;;;;;;0.10;0.10;;;;;;;21.28;65.13;100147.69;5034880;28;20175;-80
2021/07/06 06:13:49;;;;;;;0.20;0.20;;;;;;;21.15;63.83;100166.63;5033097;28;20025;-80
2021/07/06 06:16:15;;;;;;;0.08;0.08;;;;;;;21.29;63.26;100155.63;5031991;28;20392;-81
2021/07/06 06:18:42;;;;;;;0.03;0.03;;;;;;;21.22;62.65;100157.09;5033401;28;20384;-81
2021/07/06 06:21:09;;;;;;;0.55;0.55;;;;;;;21.44;63.08;100161.69;5031941;28;20033;-81
2021/07/06 06:23:35;;;;;;;0.08;0.08;;;;;;;21.56;62.86;100157.25;5033158;28;20021;-81
2021/07/06 06:26:01;;;;;;;0.10;0.10;;;;;;;21.80;62.69;100159.00;5032071;28;20147;-81
2021/07/06 06:28:28;;;;;;;0.00;0.00;;;;;;;21.70;62.83;100153.47;5033675;28;20026;-80
2021/07/06 06:30:55;;;;;;;0.00;0.00;;;;;;;21.73;63.08;100155.94;5032206;28;20034;-79
2021/07/06 06:33:21;;;;;;;0.10;0.10;;;;;;;21.93;63.03;100165.16;5032724;28;20021;-81
2021/07/06 06:35:47;;;;;;;0.65;0.65;;;;;;;21.72;63.21;100167.69;5032251;28;20041;-81
2021/07/06 06:38:14;;;;;;;0.00;0.00;;;;;;;21.88;63.34;100170.06;5033155;28;20108;-80
2021/07/06 06:40:40;;;;;;;2.17;0.60;;;;;;;21.94;63.43;100163.31;5033061;28;20029;-82
2021/07/06 06:43:06;;;;;;;0.00;0.00;;;;;;;22.01;63.42;100166.38;5033015;28;20037;-81
2021/07/06 06:45:32;;;;;;;0.10;0.10;;;;;;;22.03;63.58;100173.38;5031486;28;20485;-80
2021/07/06 06:47:59;;;;;;;7.78;0.85;;;;;;;22.01;64.21;100174.47;5032298;28;20061;-82
2021/07/06 06:50:25;;;;;;;0.10;0.10;;;;;;;22.03;64.02;100162.59;5033491;28;20036;-80
2021/07/06 06:52:52;;;;;;;0.00;0.00;;;;;;;22.03;63.74;100167.13;5033636;28;20037;-82
2021/07/06 06:55:18;;;;;;;0.10;0.10;;;;;;;22.25;63.30;100177.06;5033693;28;20495;-81
2021/07/06 06:57:44;;;;;;;0.20;0.20;;;;;;;22.18;63.45;100173.13;5028954;28;20036;-80
2021/07/06 07:00:11;;;;;;;0.05;0.05;;;;;;;22.12;63.35;100182.59;5014329;28;20037;-81
2021/07/06 07:02:38;;;;;;;0.10;0.10;;;;;;;21.96;63.45;100175.69;5022225;28;20031;-81
2021/07/06 07:05:06;;;;;;;0.00;0.00;;;;;;;21.95;62.96;100182.06;5026316;28;20030;-81
2021/07/06 07:07:32;;;;;;;0.30;0.30;;;;;;;21.91;61.67;100183.28;5032611;28;20067;-80
2021/07/06 07:09:59;;;;;;;0.10;0.10;;;;;;;21.87;62.16;100184.53;5032520;28;20064;-81
2021/07/06 07:12:25;;;;;;;0.10;0.10;;;;;;;21.68;61.14;100189.63;5032433;28;20013;-80
2021/07/06 07:14:51;;;;;;;0.00;0.00;;;;;;;21.55;59.18;100193.22;5033141;28;20057;-80
2021/07/06 07:17:17;;;;;;;0.00;0.00;;;;;;;21.55;58.65;100190.53;5032672;28;20381;-80
2021/07/06 07:19:44;;;;;;;0.00;0.00;;;;;;;21.42;58.75;100189.75;5030231;28;20067;-80
2021/07/06 07:22:10;;;;;;;0.38;0.38;;;;;;;21.45;58.78;100194.91;5032651;28;20055;-82
2021/07/06 07:24:37;;;;;;;0.00;0.00;;;;;;;21.50;57.67;100193.56;5032539;28;20508;-81
2021/07/06 07:27:04;;;;;;;0.10;0.10;;;;;;;21.47;57.89;100198.31;5027321;28;20029;-81
2021/07/06 07:29:30;;;;;;;0.10;0.10;;;;;;;21.54;57.49;100198.75;5032721;28;20025;-81
2021/07/06 07:31:57;;;;;;;0.20;0.20;;;;;;;21.36;56.44;100217.16;5032800;28;20103;-82
2021/07/06 07:34:24;;;;;;;0.00;0.00;;;;;;;21.50;57.40;100198.94;5030266;28;20017;-80
2021/07/06 07:36:51;;;;;;;0.10;0.10;;;;;;;21.41;55.95;100205.06;5032552;28;20029;-82
2021/07/06 07:39:17;;;;;;;0.10;0.10;;;;;;;21.38;55.34;100204.44;5032426;28;20026;-82
2021/07/06 07:41:44;;;;;;;0.70;0.30;;;;;;;21.33;54.30;100211.03;5030073;28;20038;-82
2021/07/06 07:44:10;;;;;;;1.67;1.00;;;;;;;21.37;54.70;100202.72;5031246;28;20064;-81
2021/07/06 07:46:37;;;;;;;0.10;0.10;;;;;;;21.41;54.37;100206.88;5032388;28;20041;-81
2021/07/06 07:49:04;;;;;;;0.08;0.08;;;;;;;21.26;54.78;100207.06;5033499;28;20037;-81
2021/07/06 07:51:30;;;;;;;0.03;0.03;;;;;;;21.06;55.31;100215.78;5035385;28;20188;-82
2021/07/06 07:53:57;;;;;;;0.00;0.00;;;;;;;21.21;55.56;100203.00;5034984;28;21472;-82
2021/07/06 07:56:23;;;;;;;0.10;0.10;;;;;;;21.25;55.64;100205.34;5034422;28;20063;-82
2021/07/06 07:58:50;;;;;;;0.00;0.00;;;;;;;21.14;55.93;100208.00;5035227;28;20559;-82
2021/07/06 08:01:16;;;;;;;0.10;0.10;;;;;;;21.27;55.77;100203.41;5036092;28;20108;-83
2021/07/06 08:03:42;;;;;;;0.10;0.10;;;;;;;21.26;56.24;100209.78;5033470;28;20029;-81
2021/07/06 08:06:09;;;;;;;0.00;0.00;;;;;;;21.53;56.57;100197.00;5035730;28;20072;-82
2021/07/06 08:08:35;;;;;;;0.10;0.10;;;;;;;21.64;56.28;100202.47;5034503;28;20033;-82
2021/07/06 08:11:01;;;;;;;0.10;0.10;;;;;;;21.85;56.10;100201.78;5034060;28;20025;-81
2021/07/06 08:13:32;;;;;;;0.10;0.10;;;;;;;22.09;56.00;100209.78;5034660;28;20037;-82
2021/07/06 08:15:58;;;;;;;0.00;0.00;;;;;;;22.05;56.65;100233.44;5034784;28;20049;-81
2021/07/06 08:18:24;;;;;;;0.05;0.05;;;;;;;22.05;54.90;100219.13;5034980;28;20503;-82
2021/07/06 08:20:50;;;;;;;0.10;0.10;;;;;;;21.86;53.57;100231.34;5034437;28;20072;-81
2021/07/06 08:23:17;;;;;;;0.10;0.10;;;;;;;21.71;50.21;100249.56;5035223;28;20029;-81
2021/07/06 08:25:45;;;;;;;0.10;0.10;;;;;;;21.44;48.88;100230.91;5034660;28;20061;-79
2021/07/06 08:28:12;;;;;;;0.30;0.30;;;;;;;21.53;49.73;100229.34;5034369;28;20062;-81
2021/07/06 08:30:39;;;;;;;0.00;0.00;;;;;;;21.68;50.40;100243.53;5034316;28;20041;-80
2021/07/06 08:33:06;;;;;;;0.00;0.00;;;;;;;21.67;50.95;100239.13;5034425;28;20469;-79
2021/07/06 08:35:32;;;;;;;0.35;0.35;;;;;;;21.85;50.87;100240.41;5034781;28;20053;-82
2021/07/06 08:37:58;;;;;;;0.00;0.00;;;;;;;21.78;51.50;100244.53;5033663;28;20041;-80
2021/07/06 08:40:24;;;;;;;0.10;0.10;;;;;;;22.00;50.78;100238.34;5034130;28;20033;-80
2021/07/06 08:42:54;;;;;;;0.08;0.08;;;;;;;22.22;49.65;100248.31;5034157;28;20104;-81
2021/07/06 08:45:22;;;;;;;3.33;1.27;;;;;;;22.33;49.92;100249.31;5031977;28;20424;-82
2021/07/06 08:47:52;;;;;;;0.10;0.10;;;;;;;22.53;49.08;100245.94;5034133;28;20025;-82
2021/07/06 08:50:19;;;;;;;0.10;0.10;;;;;;;22.66;48.77;100250.34;5034530;28;20172;-82
2021/07/06 08:52:45;;;;;;;0.10;0.10;;;;;;;22.72;47.76;100255.25;5034035;28;20468;-80
2021/07/06 08:55:14;;;;;;;0.03;0.03;;;;;;;22.39;47.49;100257.84;5034828;28;20477;-82
2021/07/06 08:57:42;;;;;;;0.75;0.75;;;;;;;22.50;47.62;100261.50;5035980;28;20044;-81
2021/07/06 09:00:11;;;;;;;0.20;0.20;;;;;;;22.50;47.21;100256.09;5035033;28;20032;-81
2021/07/06 09:02:37;;;;;;;0.43;0.43;;;;;;;22.72;47.71;100266.06;5035330;28;20073;-81
2021/07/06 09:05:04;;;;;;;0.20;0.20;;;;;;;22.43;47.53;100277.31;5035217;28;20026;-81
2021/07/06 09:07:41;;;;;;;0.00;0.00;;;;;;;22.59;45.66;100269.75;5035212;28;20022;-81
2021/07/06 09:10:17;;;;;;;0.10;0.10;;;;;;;22.52;45.39;100276.59;5034882;28;20029;-83
2021/07/06 09:12:45;;;;;;;0.00;0.00;;;;;;;22.67;45.67;100269.13;5033119;28;20495;-80
2021/07/06 09:18:08;;;;;;;0.10;0.10;;;;;;;23.09;46.32;100280.13;5089247;27;20451;-80
2021/07/06 09:20:36;;;;;;;0.10;0.10;;;;;;;22.62;45.71;100282.97;5072305;28;20036;-84
2021/07/06 09:23:23;;;;;;;0.20;0.20;;;;;;;22.74;45.15;100266.75;5080652;28;20087;-82
2021/07/06 09:28:52;;;;;;;0.10;0.10;;;;;;;22.29;45.74;100292.75;5103410;27;20776;-80
2021/07/06 09:34:11;;;;;;;0.00;0.00;;;;;;;22.35;46.04;100275.19;5087372;27;20408;-82
2021/07/06 09:39:26;;;;;;;0.10;0.10;;;;;;;22.17;45.58;100303.63;5073868;28;20475;-82
2021/07/06 09:44:40;;;;;;;0.00;0.00;;;;;;;22.18;46.79;100313.44;5090695;28;20153;-84
2021/07/06 09:47:10;;;;;;;0.10;0.10;;;;;;;22.11;47.37;100313.06;5065694;28;20033;-83
2021/07/06 09:49:42;;;;;;;2.35;0.88;;;;;;;22.10;46.98;100314.03;5050705;28;20051;-80
2021/07/06 09:52:18;;;;;;;0.10;0.10;;;;;;;21.92;47.20;100317.16;5047345;28;20029;-80
2021/07/06 09:54:47;;;;;;;0.30;0.30;;;;;;;22.13;46.02;100311.97;5050391;28;20064;-80
2021/07/06 10:02:44;;;;;;;3.60;1.17;;;;;;;22.32;47.21;100309.66;5096324;27;20396;-81
2021/07/06 10:05:14;;;;;;;0.00;0.00;;;;;;;22.36;45.42;100330.91;5089702;28;20038;-80
2021/07/06 10:07:40;;;;;;;0.55;0.55;;;;;;;22.55;44.51;100334.88;5080688;28;20029;-81
2021/07/06 10:10:12;;;;;;;0.10;0.10;;;;;;;22.58;45.28;100329.22;5069859;28;20025;-83
2021/07/06 10:12:40;;;;;;;0.10;0.10;;;;;;;22.78;46.07;100325.81;5070087;28;20094;-82
2021/07/06 10:15:07;;;;;;;0.20;0.20;;;;;;;22.54;44.75;100342.13;5070048;28;20039;-82
2021/07/06 10:17:36;;;;;;;0.03;0.03;;;;;;;22.44;44.16;100342.00;5069620;28;20183;-81
2021/07/06 10:20:04;;;;;;;0.17;0.17;;;;;;;22.31;44.53;100354.69;5070174;28;20029;-81
2021/07/06 10:22:30;;;;;;;0.28;0.22;;;;;;;22.46;44.66;100336.47;5070220;28;20032;-82
2021/07/06 10:25:01;;;;;;;0.10;0.10;;;;;;;23.00;44.18;100328.63;5070065;28;20036;-82
2021/07/06 10:27:32;;;;;;;0.00;0.00;;;;;;;23.00;43.40;100345.69;5070357;28;20025;-81
2021/07/06 10:30:09;;;;;;;0.10;0.10;;;;;;;23.25;43.68;100331.09;5070378;28;20040;-81
2021/07/06 10:32:41;;;;;;;0.10;0.10;;;;;;;23.43;43.18;100335.97;5070278;28;20542;-81
2021/07/06 10:35:10;;;;;;;0.13;0.13;;;;;;;23.65;43.14;100345.00;5070094;28;20033;-82
2021/07/06 10:37:37;;;;;;;0.55;0.55;;;;;;;22.90;44.40;100344.72;5069936;28;20028;-82
2021/07/06 10:40:24;;;;;;;0.10;0.10;;;;;;;23.06;43.38;100355.16;5069770;28;20031;-81
2021/07/06 10:42:52;;;;;;;0.00;0.00;;;;;;;23.24;44.36;100359.13;5067955;28;20024;-81
2021/07/06 10:48:02;;;;;;;0.10;0.10;;;;;;;23.56;44.02;100358.31;5067799;28;20488;-82
2021/07/06 10:53:23;;;;;;;0.25;0.20;;;;;;;23.30;43.18;100362.28;5078642;27;20781;-81
2021/07/06 11:07:42;;;;;;;0.55;0.55;;;;;;;22.98;44.53;100385.50;5084830;27;20423;-80
2021/07/06 11:10:09;;;;;;;0.65;0.22;;;;;;;23.24;44.03;100374.44;5070400;28;20476;-82
2021/07/06 11:12:38;;;;;;;0.00;0.00;;;;;;;23.30;43.14;100367.69;5057143;28;20503;-82
2021/07/06 11:15:16;;;;;;;0.10;0.10;;;;;;;22.94;43.37;100378.59;5070145;28;20040;-83
2021/07/06 11:20:44;;;;;;;0.08;0.08;;;;;;;23.13;43.68;100367.19;5079840;28;20420;-82
2021/07/06 11:23:21;;;;;;;0.10;0.10;;;;;;;23.28;43.58;100375.94;5066978;28;20036;-82
2021/07/06 11:25:48;;;;;;;0.00;0.00;;;;;;;23.27;42.69;100380.47;5070754;28;20116;-82
2021/07/06 11:28:26;;;;;;;0.00;0.00;;;;;;;23.42;44.10;100380.22;5057176;28;20061;-81
2021/07/06 11:39:01;;;;;;;0.10;0.10;;;;;;;22.82;44.03;100395.78;5070776;27;20446;-82
2021/07/06 11:41:27;;;;;;;0.25;0.25;;;;;;;22.85;44.65;100393.69;5069548;28;20082;-83
2021/07/06 11:43:54;;;;;;;0.75;0.68;;;;;;;23.07;44.40;100390.16;5070741;28;20060;-84
2021/07/06 11:46:22;;;;;;;0.10;0.10;;;;;;;22.77;45.06;100405.13;5069904;28;20040;-83
2021/07/06 11:48:54;;;;;;;0.10;0.10;;;;;;;22.79;45.57;100413.09;5067002;28;20224;-92
2021/07/06 11:51:22;;;;;;;1.88;1.55;;;;;;;22.35;45.84;100404.75;5068725;28;20070;-84
2021/07/06 11:54:00;;;;;;;0.00;0.00;;;;;;;22.56;45.36;100410.34;5060876;28;20036;-82
2021/07/06 11:56:28;;;;;;;0.00;0.00;;;;;;;22.55;44.66;100405.09;5065582;28;20028;-83
2021/07/06 11:58:54;;;;;;;0.10;0.10;;;;;;;22.49;44.87;100401.00;5069115;28;20037;-81
2021/07/06 12:01:22;;;;;;;0.10;0.10;;;;;;;22.50;44.57;100408.13;5067930;28;20021;-82
2021/07/06 12:03:48;;;;;;;0.10;0.10;;;;;;;22.78;44.80;100412.25;5069125;28;20535;-85
2021/07/06 12:06:18;;;;;;;0.00;0.00;;;;;;;22.76;45.43;100413.34;5069943;28;20476;-81
2021/07/06 12:08:47;;;;;;;0.52;0.52;;;;;;;22.65;45.26;100416.03;5069293;28;20055;-84
2021/07/06 12:11:21;;;;;;;0.10;0.10;;;;;;;22.39;45.78;100429.69;5068766;28;20033;-81
2021/07/06 12:16:33;;;;;;;0.00;0.00;;;;;;;22.66;46.07;100428.56;5076113;28;20126;-82
2021/07/06 12:21:28;;;;;;;0.00;0.00;;;;;;;22.79;46.67;100434.69;5045923;28;20476;-82